Time;durP1;ratioP1;P1;durP2;ratioP2;P2;SDS_P1;SDS_P2;PMS_P1;PMS_P2;Temp;Humidity;BMP_temperature;BMP_pressure;BME280_temperature;BME280_humidity;BME280_pressure;Samples;Min_cycle;Max_cycle;Signal;HPM_P1;HPM_P2
2021/01/04 00:02:04;;;;;;;60.35;34.60;;;1.20;88.20;;;;;;5056547;28;20415;-81
2021/01/04 00:05:01;;;;;;;61.00;34.87;;;1.30;87.20;;;;;;5080964;28;20900;-81
2021/01/04 00:07:28;;;;;;;62.55;35.55;;;1.30;87.60;;;;;;5076953;28;20451;-81
2021/01/04 00:10:13;;;;;;;66.18;36.92;;;1.20;88.30;;;;;;5091997;28;20436;-81
2021/01/04 00:13:08;;;;;;;62.83;35.63;;;1.20;88.80;;;;;;5094604;28;21065;-81
2021/01/04 00:15:57;;;;;;;63.93;35.27;;;1.10;88.60;;;;;;5053361;28;20405;-80
2021/01/04 00:18:40;;;;;;;61.73;35.93;;;1.20;87.60;;;;;;5094473;28;20448;-81
2021/01/04 00:21:23;;;;;;;64.30;35.55;;;1.20;88.50;;;;;;5074267;28;20406;-81
2021/01/04 00:24:15;;;;;;;63.00;35.33;;;1.10;89.40;;;;;;5094371;28;20772;-81
2021/01/04 00:27:05;;;;;;;62.45;35.10;;;1.10;88.90;;;;;;5091689;28;20479;-81
2021/01/04 00:29:32;;;;;;;60.78;35.08;;;1.10;89.10;;;;;;5075950;28;20398;-80
2021/01/04 00:32:05;;;;;;;62.47;35.40;;;1.10;89.60;;;;;;5073272;28;20453;-81
2021/01/04 00:34:45;;;;;;;64.43;35.13;;;1.10;89.80;;;;;;5094242;28;20752;-80
2021/01/04 00:37:53;;;;;;;64.38;36.13;;;1.10;89.00;;;;;;5092267;28;20472;-81
2021/01/04 00:40:47;;;;;;;65.93;35.78;;;1.10;89.40;;;;;;5076147;28;20963;-81
2021/01/04 00:43:24;;;;;;;64.05;35.15;;;1.10;88.90;;;;;;5074390;28;20474;-81
2021/01/04 00:45:52;;;;;;;66.03;36.23;;;1.10;89.10;;;;;;5054096;28;20424;-81
2021/01/04 00:48:38;;;;;;;65.30;35.72;;;1.10;89.00;;;;;;5092769;28;20394;-81
2021/01/04 00:51:29;;;;;;;64.82;36.15;;;1.10;90.20;;;;;;5093615;28;20390;-80
2021/01/04 00:53:56;;;;;;;61.88;34.35;;;1.10;90.40;;;;;;5073536;28;20469;-81
2021/01/04 00:56:34;;;;;;;62.95;35.80;;;1.10;89.80;;;;;;5073254;28;20443;-81
2021/01/04 00:59:12;;;;;;;63.67;36.23;;;1.10;90.00;;;;;;5066790;28;20471;-81
2021/01/04 01:01:49;;;;;;;64.00;35.78;;;1.10;89.90;;;;;;5075868;28;20884;-80
2021/01/04 01:04:30;;;;;;;64.45;35.45;;;1.10;89.20;;;;;;5055506;28;20458;-80
2021/01/04 01:07:02;;;;;;;68.70;36.95;;;1.10;88.90;;;;;;5055420;28;20477;-80
2021/01/04 01:09:34;;;;;;;66.53;36.63;;;1.10;89.40;;;;;;5092889;28;20481;-81
2021/01/04 01:12:08;;;;;;;64.38;36.13;;;1.10;88.40;;;;;;5075513;28;20818;-80
2021/01/04 01:14:59;;;;;;;64.80;36.05;;;1.10;89.10;;;;;;5055391;28;20449;-81
2021/01/04 01:18:05;;;;;;;65.50;36.58;;;1.10;89.00;;;;;;5055339;28;20407;-81
2021/01/04 01:20:35;;;;;;;67.75;36.50;;;1.10;88.90;;;;;;5072887;28;21244;-81
2021/01/04 01:23:02;;;;;;;66.75;36.78;;;1.00;89.80;;;;;;5056129;28;20410;-81
2021/01/04 01:25:34;;;;;;;66.30;36.50;;;1.10;89.50;;;;;;5074909;28;20475;-81
2021/01/04 01:28:19;;;;;;;62.17;35.85;;;1.10;89.20;;;;;;5092987;28;20398;-81
2021/01/04 01:31:02;;;;;;;64.03;36.80;;;1.10;89.50;;;;;;5072622;28;20403;-81
2021/01/04 01:34:10;;;;;;;67.10;37.10;;;1.10;90.00;;;;;;5072969;28;20912;-81
2021/01/04 01:36:46;;;;;;;65.32;36.80;;;1.10;89.60;;;;;;5071683;28;20463;-81
2021/01/04 01:39:13;;;;;;;68.22;37.30;;;1.10;90.00;;;;;;5055991;28;20402;-81
2021/01/04 01:42:10;;;;;;;65.23;37.87;;;1.10;89.50;;;;;;5091377;28;20452;-81
2021/01/04 01:45:17;;;;;;;65.05;36.92;;;1.10;89.60;;;;;;5090542;28;20402;-81
2021/01/04 01:48:07;;;;;;;63.80;37.10;;;1.10;89.80;;;;;;5074975;28;20431;-81
2021/01/04 01:50:52;;;;;;;70.55;38.47;;;1.00;89.50;;;;;;5081110;28;20406;-81
2021/01/04 01:53:28;;;;;;;70.57;38.80;;;1.10;89.90;;;;;;5054700;28;20939;-80
2021/01/04 01:56:17;;;;;;;65.13;38.50;;;1.10;89.10;;;;;;5080515;28;20791;-81
2021/01/04 01:59:09;;;;;;;65.93;37.92;;;1.10;88.90;;;;;;5074839;28;20464;-81
2021/01/04 02:01:41;;;;;;;60.40;35.47;;;1.10;88.70;;;;;;5071477;28;20398;-81
2021/01/04 02:04:29;;;;;;;61.65;36.08;;;1.10;88.70;;;;;;5074010;28;20417;-81
2021/01/04 02:07:24;;;;;;;64.78;38.00;;;1.00;88.70;;;;;;5089344;28;20461;-81
2021/01/04 02:09:58;;;;;;;66.45;38.22;;;1.00;88.80;;;;;;5074597;28;20495;-81
2021/01/04 02:12:45;;;;;;;62.63;37.55;;;1.00;90.00;;;;;;5071640;28;20455;-81
2021/01/04 02:15:19;;;;;;;61.92;36.95;;;1.10;89.20;;;;;;5092549;28;20402;-81
2021/01/04 02:18:08;;;;;;;62.85;36.47;;;1.00;89.20;;;;;;5071592;28;20455;-81
2021/01/04 02:20:46;;;;;;;62.90;37.30;;;1.10;88.40;;;;;;5092139;28;20422;-81
2021/01/04 02:23:32;;;;;;;60.25;36.92;;;1.10;90.00;;;;;;5089374;28;20880;-81
2021/01/04 02:26:06;;;;;;;63.95;38.28;;;1.10;89.80;;;;;;5074257;28;20422;-81
2021/01/04 02:28:36;;;;;;;64.20;37.60;;;1.10;88.30;;;;;;5089835;28;20410;-81
2021/01/04 02:31:02;;;;;;;67.47;38.60;;;1.10;88.10;;;;;;5092167;28;20410;-81
2021/01/04 02:33:30;;;;;;;63.97;37.95;;;1.00;89.70;;;;;;5072011;28;20406;-81
2021/01/04 02:36:00;;;;;;;65.07;38.05;;;1.00;89.20;;;;;;5074182;28;20417;-81
2021/01/04 02:38:35;;;;;;;62.50;37.60;;;1.10;88.50;;;;;;5069978;28;20785;-81
2021/01/04 02:41:01;;;;;;;63.80;37.95;;;1.10;88.60;;;;;;5054218;28;20796;-81
2021/01/04 02:43:28;;;;;;;67.63;39.23;;;1.00;88.30;;;;;;5053192;28;20449;-81
2021/01/04 02:46:05;;;;;;;66.25;38.80;;;1.00;88.20;;;;;;5060937;28;20422;-81
2021/01/04 02:48:51;;;;;;;64.50;38.83;;;1.00;88.50;;;;;;5071998;28;20459;-81
2021/01/04 02:51:25;;;;;;;62.78;37.58;;;1.00;89.00;;;;;;5074251;28;20398;-81
2021/01/04 02:54:24;;;;;;;62.63;38.03;;;1.00;89.00;;;;;;5091765;28;20409;-81
2021/01/04 02:57:21;;;;;;;67.72;38.58;;;1.00;89.20;;;;;;5075602;28;20506;-81
2021/01/04 02:59:56;;;;;;;63.53;37.30;;;1.10;90.60;;;;;;5085859;28;20417;-81
2021/01/04 03:02:32;;;;;;;61.07;36.70;;;1.10;89.80;;;;;;5077741;28;20742;-81
2021/01/04 03:04:59;;;;;;;62.63;36.50;;;1.10;90.30;;;;;;5075392;28;20463;-81
2021/01/04 03:07:32;;;;;;;56.38;34.65;;;1.10;90.10;;;;;;5077921;28;20457;-81
2021/01/04 03:10:06;;;;;;;55.83;34.03;;;1.10;89.20;;;;;;5075564;28;20410;-81
2021/01/04 03:12:38;;;;;;;56.33;34.33;;;1.10;88.60;;;;;;5077853;28;20474;-80
2021/01/04 03:15:37;;;;;;;55.33;33.55;;;1.10;89.20;;;;;;5074867;28;20444;-81
2021/01/04 03:18:16;;;;;;;55.90;34.35;;;1.10;89.40;;;;;;5077793;28;21171;-81
2021/01/04 03:20:45;;;;;;;58.05;34.28;;;1.10;90.00;;;;;;5066013;28;20457;-81
2021/01/04 03:23:12;;;;;;;54.42;33.25;;;1.10;89.70;;;;;;5057256;28;20460;-81
2021/01/04 03:25:52;;;;;;;54.33;32.97;;;1.10;90.10;;;;;;5080022;28;20417;-81
2021/01/04 03:28:28;;;;;;;54.72;33.80;;;1.10;90.00;;;;;;5086392;28;20396;-81
2021/01/04 03:30:56;;;;;;;55.67;34.35;;;1.10;90.20;;;;;;5075469;28;20462;-81
2021/01/04 03:33:23;;;;;;;56.13;34.10;;;1.10;90.80;;;;;;5095173;28;20406;-81
2021/01/04 03:35:51;;;;;;;57.38;33.05;;;1.10;90.90;;;;;;5091559;28;20413;-81
2021/01/04 03:38:19;;;;;;;54.65;33.25;;;1.10;90.20;;;;;;5077316;28;20459;-81
2021/01/04 03:40:45;;;;;;;55.00;33.85;;;1.10;90.50;;;;;;5092497;28;20405;-81
2021/01/04 03:43:12;;;;;;;53.17;32.00;;;1.10;90.80;;;;;;5091477;28;20418;-81
2021/01/04 03:45:41;;;;;;;52.28;32.10;;;1.10;90.30;;;;;;5095348;28;20489;-81
2021/01/04 03:48:07;;;;;;;56.90;33.30;;;1.10;90.20;;;;;;5074890;28;20918;-81
2021/01/04 03:50:34;;;;;;;56.35;33.95;;;1.10;90.40;;;;;;5076939;28;20579;-81
2021/01/04 03:53:01;;;;;;;56.05;33.25;;;1.10;90.70;;;;;;5078819;28;20411;-81
2021/01/04 03:55:27;;;;;;;54.40;33.67;;;1.10;90.00;;;;;;5056894;28;20395;-81
2021/01/04 03:57:54;;;;;;;55.60;33.22;;;1.00;90.40;;;;;;5065329;28;20455;-81
2021/01/04 04:00:21;;;;;;;57.65;34.00;;;1.00;90.40;;;;;;5077026;28;20795;-81
2021/01/04 04:02:48;;;;;;;54.03;32.95;;;1.00;90.00;;;;;;5074617;28;20467;-81
2021/01/04 04:05:17;;;;;;;52.67;32.65;;;1.00;90.20;;;;;;5075795;28;20501;-81
2021/01/04 04:07:45;;;;;;;56.42;33.08;;;1.00;90.00;;;;;;5074433;28;20505;-81
2021/01/04 04:10:15;;;;;;;52.60;31.70;;;1.00;90.20;;;;;;5076608;28;20495;-81
2021/01/04 04:12:41;;;;;;;54.20;33.47;;;1.00;89.60;;;;;;5074503;28;20457;-81
2021/01/04 04:15:10;;;;;;;53.03;32.78;;;1.00;90.20;;;;;;5076813;28;20428;-81
2021/01/04 04:17:38;;;;;;;56.13;33.47;;;1.10;90.10;;;;;;5094333;28;20406;-81
2021/01/04 04:20:10;;;;;;;55.95;32.33;;;1.10;90.10;;;;;;5091838;28;20428;-81
2021/01/04 04:22:36;;;;;;;53.15;31.90;;;1.10;89.70;;;;;;5094259;28;20543;-81
2021/01/04 04:25:05;;;;;;;53.77;33.40;;;1.00;89.60;;;;;;5092465;28;20884;-81
2021/01/04 04:27:33;;;;;;;54.88;33.17;;;1.00;90.00;;;;;;5094015;28;20471;-81
2021/01/04 04:29:59;;;;;;;51.00;32.03;;;1.00;90.20;;;;;;5074049;28;20452;-81
2021/01/04 04:32:27;;;;;;;55.63;32.90;;;1.00;90.10;;;;;;5093644;28;20891;-81
2021/01/04 04:34:54;;;;;;;52.58;32.85;;;1.00;90.00;;;;;;5064017;28;20400;-81
2021/01/04 04:37:20;;;;;;;54.65;33.45;;;1.00;90.00;;;;;;5092383;28;20456;-81
2021/01/04 04:39:49;;;;;;;55.78;33.67;;;1.00;90.10;;;;;;5062216;28;20890;-81
2021/01/04 04:42:18;;;;;;;56.22;34.17;;;1.00;90.60;;;;;;5053745;28;20452;-81
2021/01/04 04:44:53;;;;;;;57.67;33.75;;;1.00;90.20;;;;;;5056985;28;22419;-81
2021/01/04 04:47:44;;;;;;;56.40;33.33;;;1.00;90.10;;;;;;5075939;28;20515;-81
2021/01/04 04:50:41;;;;;;;56.42;34.03;;;1.00;90.20;;;;;;5069564;28;20407;-81
2021/01/04 04:53:43;;;;;;;54.80;33.27;;;1.00;90.10;;;;;;5055905;28;20975;-81
2021/01/04 04:56:31;;;;;;;59.05;35.08;;;1.00;90.20;;;;;;5064225;28;20799;-81
2021/01/04 04:59:21;;;;;;;55.92;32.70;;;1.00;90.30;;;;;;5093874;28;20451;-81
2021/01/04 05:01:56;;;;;;;57.90;35.00;;;1.00;90.40;;;;;;5025796;28;20490;-81
2021/01/04 05:05:00;;;;;;;54.85;33.75;;;1.00;90.40;;;;;;5093038;28;20414;-81
2021/01/04 05:07:44;;;;;;;56.95;34.47;;;1.00;90.40;;;;;;5073251;28;20487;-80
2021/01/04 05:10:34;;;;;;;56.15;34.38;;;0.90;90.50;;;;;;5093291;28;20398;-80
2021/01/04 05:13:35;;;;;;;59.10;35.33;;;0.90;90.50;;;;;;5091080;28;20491;-80
2021/01/04 05:16:13;;;;;;;56.88;33.88;;;0.90;90.50;;;;;;5021201;28;20421;-80
2021/01/04 05:19:15;;;;;;;58.95;35.13;;;1.00;90.60;;;;;;5072889;28;20735;-80
2021/01/04 05:22:09;;;;;;;59.72;35.17;;;0.90;90.70;;;;;;5061353;28;20416;-80
2021/01/04 05:25:15;;;;;;;58.70;35.28;;;0.90;90.60;;;;;;5074936;28;20410;-80
2021/01/04 05:27:55;;;;;;;54.05;33.17;;;0.90;90.70;;;;;;4988947;28;21239;-80
2021/01/04 05:30:33;;;;;;;56.38;34.42;;;0.90;90.70;;;;;;5067026;28;20444;-80
2021/01/04 05:33:42;;;;;;;59.50;35.00;;;0.90;90.80;;;;;;5065903;28;20995;-80
2021/01/04 05:36:37;;;;;;;58.03;34.78;;;0.90;91.30;;;;;;5040286;28;20416;-81
2021/01/04 05:39:13;;;;;;;63.30;37.73;;;0.90;90.80;;;;;;5071541;28;20404;-81
2021/01/04 05:42:13;;;;;;;62.92;36.80;;;0.90;91.10;;;;;;5072603;28;20473;-81
2021/01/04 05:44:58;;;;;;;63.05;36.15;;;0.90;90.90;;;;;;5087878;28;20410;-80
2021/01/04 05:47:28;;;;;;;60.17;35.45;;;0.90;90.90;;;;;;5075086;28;20418;-80
2021/01/04 05:50:06;;;;;;;63.07;37.30;;;0.90;90.90;;;;;;5090218;28;20428;-80
2021/01/04 05:52:34;;;;;;;61.17;36.28;;;0.90;91.10;;;;;;5092701;28;20403;-80
2021/01/04 05:55:03;;;;;;;60.53;36.38;;;0.90;90.90;;;;;;5072122;28;20573;-80
2021/01/04 05:57:30;;;;;;;58.85;35.55;;;0.90;90.60;;;;;;5074606;28;20410;-80
2021/01/04 05:59:58;;;;;;;61.38;37.33;;;0.90;90.60;;;;;;5078281;28;20476;-80
2021/01/04 06:02:34;;;;;;;64.03;37.72;;;0.80;90.60;;;;;;5071989;28;20412;-80
2021/01/04 06:05:12;;;;;;;61.13;37.22;;;0.90;90.70;;;;;;5061819;28;20417;-80
2021/01/04 06:07:42;;;;;;;62.07;37.37;;;0.80;90.90;;;;;;5092237;28;20426;-81
2021/01/04 06:10:22;;;;;;;62.90;36.80;;;0.80;91.00;;;;;;5082205;28;20453;-80
2021/01/04 06:13:06;;;;;;;62.80;37.10;;;0.80;91.40;;;;;;5057102;28;20416;-80
2021/01/04 06:15:37;;;;;;;62.20;37.50;;;0.90;90.80;;;;;;5079765;28;20402;-80
2021/01/04 06:18:23;;;;;;;61.65;37.10;;;0.90;90.70;;;;;;5091935;28;20459;-79
2021/01/04 06:20:53;;;;;;;63.22;37.65;;;0.90;90.30;;;;;;5063502;28;20489;-80
2021/01/04 06:23:31;;;;;;;62.45;37.08;;;0.90;91.00;;;;;;5069684;28;20815;-80
2021/01/04 06:26:10;;;;;;;61.90;36.97;;;0.90;90.80;;;;;;5072163;28;20401;-80
2021/01/04 06:28:54;;;;;;;58.95;36.67;;;0.90;90.70;;;;;;5091464;28;20398;-80
2021/01/04 06:31:43;;;;;;;61.90;36.70;;;0.80;90.60;;;;;;5089852;28;20394;-80
2021/01/04 06:34:19;;;;;;;64.60;37.90;;;0.80;90.30;;;;;;5091975;28;20957;-80
2021/01/04 06:36:50;;;;;;;63.63;38.53;;;0.80;90.80;;;;;;5085164;28;20414;-80
2021/01/04 06:39:20;;;;;;;61.50;37.30;;;0.80;90.70;;;;;;5092132;28;20406;-80
2021/01/04 06:41:47;;;;;;;64.28;37.08;;;0.80;90.50;;;;;;5071415;28;20434;-80
2021/01/04 06:44:18;;;;;;;60.27;36.03;;;0.80;90.50;;;;;;5073920;28;20406;-82
2021/01/04 06:47:11;;;;;;;65.63;39.08;;;0.80;90.70;;;;;;5071589;28;20426;-79
2021/01/04 06:49:53;;;;;;;65.88;37.38;;;0.90;90.60;;;;;;5091987;28;20406;-79
2021/01/04 06:52:56;;;;;;;65.18;37.47;;;0.90;90.50;;;;;;5089481;28;20398;-79
2021/01/04 06:55:28;;;;;;;68.63;38.97;;;0.90;90.40;;;;;;5091055;28;20394;-80
2021/01/04 06:58:19;;;;;;;64.60;37.17;;;0.90;90.30;;;;;;5089038;28;20433;-80
2021/01/04 07:01:36;;;;;;;65.25;38.50;;;0.90;90.40;;;;;;5073827;28;20406;-80
2021/01/04 07:04:39;;;;;;;64.90;38.75;;;0.90;90.40;;;;;;4992852;28;20419;-80
2021/01/04 07:07:41;;;;;;;66.10;37.45;;;0.90;90.50;;;;;;5071286;28;20477;-80
2021/01/04 07:10:13;;;;;;;63.33;38.43;;;0.90;90.40;;;;;;5048442;28;20414;-80
2021/01/04 07:12:52;;;;;;;62.70;36.67;;;0.90;90.30;;;;;;5051461;28;20405;-80
2021/01/04 07:15:31;;;;;;;65.00;37.33;;;0.90;90.10;;;;;;5033713;28;20437;-80
2021/01/04 07:18:22;;;;;;;67.05;38.13;;;0.90;90.20;;;;;;5071131;28;20412;-80
2021/01/04 07:21:27;;;;;;;63.05;36.65;;;0.90;90.30;;;;;;5052682;28;20856;-80
2021/01/04 07:24:27;;;;;;;66.78;38.63;;;0.90;90.50;;;;;;5053317;28;20445;-79
2021/01/04 07:27:18;;;;;;;64.85;37.67;;;0.90;90.50;;;;;;5053261;28;20451;-79
2021/01/04 07:30:14;;;;;;;62.65;37.20;;;0.90;90.20;;;;;;5068425;28;20403;-79
2021/01/04 07:32:49;;;;;;;67.80;40.13;;;1.00;90.20;;;;;;5052121;28;20447;-79
2021/01/04 07:35:30;;;;;;;64.23;37.93;;;0.90;90.00;;;;;;5050984;28;20500;-79
2021/01/04 07:38:18;;;;;;;67.88;38.33;;;1.00;90.10;;;;;;5052977;28;20404;-80
2021/01/04 07:41:03;;;;;;;66.13;38.77;;;1.00;90.40;;;;;;5059521;28;20471;-79
2021/01/04 07:44:08;;;;;;;68.10;38.97;;;1.00;90.10;;;;;;5069736;28;20467;-79
2021/01/04 07:46:51;;;;;;;66.38;38.63;;;1.00;90.10;;;;;;5051397;28;20428;-80
2021/01/04 07:49:33;;;;;;;68.80;39.53;;;1.00;89.50;;;;;;5037294;28;20432;-80
2021/01/04 07:52:09;;;;;;;67.70;38.42;;;1.00;90.00;;;;;;5070091;28;20453;-79
2021/01/04 07:54:58;;;;;;;66.10;38.63;;;1.00;90.40;;;;;;5074397;28;20429;-79
2021/01/04 07:57:31;;;;;;;68.78;38.83;;;1.00;90.00;;;;;;5054185;28;20457;-79
2021/01/04 08:00:31;;;;;;;66.82;38.55;;;1.00;89.70;;;;;;5074994;28;20430;-79
2021/01/04 08:03:19;;;;;;;65.90;38.25;;;1.10;90.00;;;;;;5038384;28;20421;-79
2021/01/04 08:06:08;;;;;;;68.60;38.72;;;1.10;89.70;;;;;;5067084;28;20459;-79
2021/01/04 08:08:47;;;;;;;63.08;37.10;;;1.10;90.00;;;;;;5071387;28;20880;-80
2021/01/04 08:11:50;;;;;;;67.90;39.05;;;1.10;89.80;;;;;;5074304;28;20807;-80
2021/01/04 08:14:46;;;;;;;64.60;38.35;;;1.10;90.00;;;;;;5076484;28;20463;-80
2021/01/04 08:17:31;;;;;;;66.65;38.63;;;1.10;89.80;;;;;;5091344;28;20899;-81
2021/01/04 08:20:00;;;;;;;65.20;37.65;;;1.10;90.10;;;;;;5094357;28;20398;-81
2021/01/04 08:22:38;;;;;;;64.85;36.92;;;1.10;89.20;;;;;;5073610;28;20426;-80
2021/01/04 08:25:44;;;;;;;65.45;36.85;;;1.10;88.60;;;;;;5094162;28;20429;-80
2021/01/04 08:28:50;;;;;;;63.97;37.28;;;1.10;89.70;;;;;;5080705;28;21347;-80
2021/01/04 08:31:40;;;;;;;64.88;38.30;;;1.10;88.80;;;;;;5039793;28;20407;-81
2021/01/04 08:34:10;;;;;;;64.93;37.50;;;1.10;88.80;;;;;;5084243;28;20449;-80
2021/01/04 08:36:42;;;;;;;68.97;40.47;;;1.10;89.60;;;;;;5075929;28;20445;-79
2021/01/04 08:39:17;;;;;;;78.68;43.60;;;1.10;90.30;;;;;;5073739;28;20406;-78
2021/01/04 08:41:44;;;;;;;67.75;39.22;;;1.10;89.70;;;;;;5093502;28;20406;-78
2021/01/04 08:44:19;;;;;;;63.38;36.88;;;1.10;89.40;;;;;;5081196;28;20769;-79
2021/01/04 08:46:49;;;;;;;63.67;36.78;;;1.20;88.70;;;;;;5073263;28;20469;-79
2021/01/04 08:49:27;;;;;;;63.95;36.47;;;1.20;88.30;;;;;;5063471;28;20462;-79
2021/01/04 08:51:55;;;;;;;61.08;36.10;;;1.20;88.70;;;;;;5093345;28;20779;-78
2021/01/04 08:54:32;;;;;;;63.85;37.53;;;1.20;88.70;;;;;;5090647;28;20409;-79
2021/01/04 08:57:18;;;;;;;62.85;35.67;;;1.20;88.60;;;;;;5075472;28;20402;-79
2021/01/04 09:00:14;;;;;;;61.15;36.15;;;1.20;88.10;;;;;;5088510;28;20402;-78
2021/01/04 09:02:42;;;;;;;64.70;37.35;;;1.20;89.10;;;;;;5093430;28;20455;-79
2021/01/04 09:05:15;;;;;;;61.58;36.17;;;1.20;88.30;;;;;;5072749;28;20402;-78
2021/01/04 09:08:08;;;;;;;60.83;35.63;;;1.20;87.60;;;;;;5075830;28;20522;-82
2021/01/04 09:10:43;;;;;;;60.67;36.65;;;1.30;88.00;;;;;;5082843;28;20415;-81
2021/01/04 09:13:22;;;;;;;62.05;35.85;;;1.30;87.80;;;;;;5090457;28;20502;-80
2021/01/04 09:15:50;;;;;;;63.95;36.33;;;1.30;87.20;;;;;;5072650;28;20425;-81
2021/01/04 09:18:37;;;;;;;64.15;37.03;;;1.20;88.00;;;;;;5091996;28;20859;-81
2021/01/04 09:21:37;;;;;;;61.65;36.17;;;1.30;88.10;;;;;;5074675;28;20560;-82
2021/01/04 09:24:22;;;;;;;59.70;35.75;;;1.30;87.50;;;;;;5075406;28;20444;-82
2021/01/04 09:26:53;;;;;;;61.80;35.70;;;1.30;87.60;;;;;;5052914;28;20432;-80
2021/01/04 09:29:26;;;;;;;59.70;35.47;;;1.30;87.10;;;;;;5055054;28;20435;-80
2021/01/04 09:32:06;;;;;;;63.83;35.92;;;1.30;87.00;;;;;;5064244;28;20402;-80
2021/01/04 09:34:33;;;;;;;61.80;35.75;;;1.30;87.20;;;;;;5074455;28;20402;-79
2021/01/04 09:37:09;;;;;;;61.42;35.45;;;1.30;87.50;;;;;;5072951;28;20892;-80
2021/01/04 09:39:40;;;;;;;64.32;36.88;;;1.30;87.50;;;;;;5074982;28;20417;-79
2021/01/04 09:42:12;;;;;;;66.17;37.47;;;1.30;87.90;;;;;;5072532;28;20402;-79
2021/01/04 09:44:39;;;;;;;61.03;36.70;;;1.30;88.30;;;;;;5092511;28;20430;-81
2021/01/04 09:47:34;;;;;;;62.38;35.95;;;1.40;88.30;;;;;;5067025;28;20430;-82
2021/01/04 09:50:12;;;;;;;60.97;37.35;;;1.40;87.80;;;;;;5088324;28;20409;-81
2021/01/04 09:53:12;;;;;;;60.70;35.63;;;1.50;88.30;;;;;;5060336;28;20406;-80
2021/01/04 09:55:43;;;;;;;62.45;36.92;;;1.50;87.80;;;;;;5071411;28;20411;-81
2021/01/04 09:58:10;;;;;;;66.13;36.17;;;1.40;88.60;;;;;;5053311;28;20461;-81
2021/01/04 10:00:39;;;;;;;62.10;35.92;;;1.50;88.00;;;;;;5072469;28;20434;-80
2021/01/04 10:03:16;;;;;;;59.83;35.45;;;1.50;87.70;;;;;;5058422;28;20418;-81
2021/01/04 10:05:45;;;;;;;56.70;33.75;;;1.50;87.60;;;;;;5092535;28;20394;-81
2021/01/04 10:08:22;;;;;;;57.75;34.13;;;1.50;87.30;;;;;;5089183;28;20430;-81
2021/01/04 10:11:04;;;;;;;63.20;36.00;;;1.50;88.10;;;;;;5074192;28;20741;-81
2021/01/04 10:13:37;;;;;;;61.67;36.13;;;1.50;87.60;;;;;;5068549;28;20416;-81
2021/01/04 10:16:16;;;;;;;65.18;36.80;;;1.50;86.70;;;;;;5072054;28;21035;-81
2021/01/04 10:19:08;;;;;;;61.50;35.80;;;1.50;86.50;;;;;;5056619;28;20752;-80
2021/01/04 10:21:47;;;;;;;63.43;35.67;;;1.50;87.50;;;;;;5091904;28;20442;-80
2021/01/04 10:24:41;;;;;;;58.08;34.67;;;1.50;87.30;;;;;;5090221;28;20418;-80
2021/01/04 10:27:07;;;;;;;60.47;35.72;;;1.60;87.30;;;;;;5033927;28;20485;-80
2021/01/04 10:29:55;;;;;;;67.57;38.65;;;1.60;88.70;;;;;;5068873;28;20399;-80
2021/01/04 10:32:30;;;;;;;59.42;34.45;;;1.60;87.70;;;;;;5072900;28;20854;-80
2021/01/04 10:34:57;;;;;;;61.35;34.75;;;1.60;86.70;;;;;;5065656;28;20896;-80
2021/01/04 10:37:44;;;;;;;62.70;35.47;;;1.60;86.20;;;;;;5074091;28;20406;-80
2021/01/04 10:40:18;;;;;;;64.38;36.13;;;1.60;86.80;;;;;;5089988;28;20937;-81
2021/01/04 10:42:48;;;;;;;60.38;34.72;;;1.60;86.90;;;;;;5073579;28;20418;-80
2021/01/04 10:45:20;;;;;;;62.58;36.42;;;1.70;85.90;;;;;;5071770;28;20449;-80
2021/01/04 10:48:03;;;;;;;63.60;34.90;;;1.70;86.80;;;;;;5073527;28;20841;-80
2021/01/04 10:50:38;;;;;;;62.47;34.90;;;1.70;86.60;;;;;;5055681;28;20486;-82
2021/01/04 10:53:27;;;;;;;59.33;33.97;;;1.70;86.80;;;;;;5091566;28;20398;-81
2021/01/04 10:56:06;;;;;;;62.38;35.08;;;1.70;86.80;;;;;;5072285;28;20417;-81
2021/01/04 10:58:39;;;;;;;60.10;34.72;;;1.70;86.80;;;;;;5073019;28;20429;-80
2021/01/04 11:01:22;;;;;;;62.72;34.90;;;1.70;86.50;;;;;;5071462;28;20402;-80
2021/01/04 11:04:04;;;;;;;59.70;34.03;;;1.70;86.90;;;;;;5073527;28;20484;-80
2021/01/04 11:06:36;;;;;;;64.10;35.47;;;1.70;86.90;;;;;;5071357;28;20483;-80
2021/01/04 11:09:25;;;;;;;60.87;35.03;;;1.70;86.80;;;;;;5073646;28;20397;-80
2021/01/04 11:12:07;;;;;;;62.53;34.55;;;1.80;86.90;;;;;;5071794;28;20414;-80
2021/01/04 11:14:33;;;;;;;59.40;34.60;;;1.70;86.20;;;;;;5093764;28;20459;-80
2021/01/04 11:17:34;;;;;;;58.67;33.75;;;1.70;86.00;;;;;;5070650;28;20407;-80
2021/01/04 11:20:15;;;;;;;58.65;34.45;;;1.70;86.80;;;;;;5054822;28;20411;-79
2021/01/04 11:22:42;;;;;;;61.53;35.72;;;1.80;86.50;;;;;;5085897;28;20406;-80
2021/01/04 11:25:11;;;;;;;60.80;33.70;;;1.70;86.70;;;;;;5095400;28;20495;-80
2021/01/04 11:27:40;;;;;;;58.47;33.50;;;1.70;86.60;;;;;;5074403;28;20510;-79
2021/01/04 11:30:07;;;;;;;60.20;34.13;;;1.70;86.30;;;;;;5077434;28;20790;-80
2021/01/04 11:32:36;;;;;;;56.45;32.92;;;1.70;87.40;;;;;;5093095;28;20405;-80
2021/01/04 11:35:04;;;;;;;57.40;33.90;;;1.70;86.80;;;;;;5071719;28;20476;-81
2021/01/04 11:37:31;;;;;;;65.47;33.53;;;1.70;86.80;;;;;;5095388;28;20402;-79
2021/01/04 11:39:57;;;;;;;57.75;33.60;;;1.70;86.70;;;;;;5093477;28;20494;-79
2021/01/04 11:42:24;;;;;;;56.92;32.95;;;1.70;86.80;;;;;;5077400;28;20410;-80
2021/01/04 11:44:50;;;;;;;62.20;34.08;;;1.70;86.70;;;;;;5074290;28;20398;-80
2021/01/04 11:47:18;;;;;;;61.95;33.80;;;1.70;86.40;;;;;;5077117;28;20814;-79
2021/01/04 11:49:47;;;;;;;55.38;33.28;;;1.70;86.60;;;;;;5082013;28;20416;-80
2021/01/04 11:52:13;;;;;;;58.53;33.95;;;1.70;86.80;;;;;;5093105;28;20407;-80
2021/01/04 11:54:41;;;;;;;57.07;32.27;;;1.70;87.40;;;;;;5074512;28;20456;-80
2021/01/04 11:57:08;;;;;;;58.25;32.38;;;1.70;86.40;;;;;;5095124;28;20474;-80
2021/01/04 11:59:34;;;;;;;57.35;31.80;;;1.70;85.70;;;;;;5092981;28;20414;-80
2021/01/04 12:02:01;;;;;;;54.33;31.70;;;1.70;86.10;;;;;;5094585;28;20402;-80
2021/01/04 12:04:28;;;;;;;59.80;33.22;;;1.70;86.70;;;;;;5073078;28;20446;-79
2021/01/04 12:06:54;;;;;;;57.25;33.65;;;1.70;86.60;;;;;;5074447;28;20424;-80
2021/01/04 12:09:21;;;;;;;63.05;34.08;;;1.70;86.90;;;;;;5056802;28;20467;-80
2021/01/04 12:11:51;;;;;;;65.80;35.60;;;1.70;85.80;;;;;;5073672;28;21123;-79
2021/01/04 12:14:17;;;;;;;59.15;33.33;;;1.70;86.40;;;;;;5076932;28;20872;-80
2021/01/04 12:16:44;;;;;;;61.58;35.17;;;1.70;86.40;;;;;;5092417;28;20572;-79
2021/01/04 12:19:11;;;;;;;63.55;34.97;;;1.70;86.80;;;;;;5094403;28;20402;-80
2021/01/04 12:21:38;;;;;;;61.53;34.63;;;1.70;86.90;;;;;;5062387;28;20404;-80
2021/01/04 12:24:05;;;;;;;62.58;35.08;;;1.70;86.50;;;;;;5090583;28;20483;-80
2021/01/04 12:26:31;;;;;;;63.67;35.17;;;1.70;86.60;;;;;;5072542;28;20405;-79
2021/01/04 12:28:58;;;;;;;62.77;34.70;;;1.70;86.60;;;;;;5085702;28;20885;-80
2021/01/04 12:31:24;;;;;;;64.00;35.20;;;1.70;87.00;;;;;;5077495;28;20417;-79
2021/01/04 12:33:52;;;;;;;61.47;34.57;;;1.70;86.70;;;;;;5078699;28;20394;-79
2021/01/04 12:36:24;;;;;;;60.78;34.30;;;1.70;87.00;;;;;;5074359;28;22865;-78
2021/01/04 12:38:51;;;;;;;62.28;34.80;;;1.70;87.10;;;;;;5094366;28;20390;-79
2021/01/04 12:41:18;;;;;;;62.40;35.00;;;1.70;87.30;;;;;;5075361;28;20426;-80
2021/01/04 12:43:46;;;;;;;59.13;32.83;;;1.70;87.60;;;;;;5084202;28;20413;-79
2021/01/04 12:46:14;;;;;;;57.13;32.90;;;1.70;87.40;;;;;;5094157;28;20394;-79
2021/01/04 12:48:41;;;;;;;55.13;32.65;;;1.70;87.00;;;;;;5086423;28;20505;-81
2021/01/04 12:51:15;;;;;;;57.75;32.92;;;1.70;87.10;;;;;;5069225;28;20464;-81
2021/01/04 12:53:42;;;;;;;56.70;32.17;;;1.70;87.40;;;;;;5091865;28;20493;-81
2021/01/04 12:56:10;;;;;;;56.35;31.52;;;1.60;87.40;;;;;;5075906;28;20757;-81
2021/01/04 12:58:42;;;;;;;58.28;32.10;;;1.60;87.50;;;;;;5083762;28;20425;-81
2021/01/04 13:01:10;;;;;;;60.28;32.83;;;1.60;88.10;;;;;;5093843;28;20456;-81
2021/01/04 13:03:44;;;;;;;55.15;30.98;;;1.60;87.40;;;;;;5069353;28;20405;-82
2021/01/04 13:06:23;;;;;;;57.03;31.90;;;1.60;86.90;;;;;;5075369;28;20466;-82
2021/01/04 13:08:50;;;;;;;55.25;31.63;;;1.60;87.80;;;;;;5090932;28;20807;-82
2021/01/04 13:11:17;;;;;;;56.17;32.40;;;1.60;87.60;;;;;;5093036;28;20402;-82
2021/01/04 13:13:47;;;;;;;57.78;32.78;;;1.60;88.00;;;;;;5073405;28;20414;-81
2021/01/04 13:16:14;;;;;;;56.42;33.03;;;1.60;87.80;;;;;;5093470;28;20409;-82
2021/01/04 13:18:41;;;;;;;54.83;31.83;;;1.60;87.70;;;;;;5073612;28;20543;-83
2021/01/04 13:21:08;;;;;;;56.60;31.58;;;1.70;87.80;;;;;;5093481;28;20934;-81
2021/01/04 13:23:34;;;;;;;54.00;31.25;;;1.70;87.70;;;;;;5075642;28;20401;-83
2021/01/04 13:26:06;;;;;;;53.27;30.87;;;1.70;87.10;;;;;;5073205;28;20409;-83
2021/01/04 13:28:32;;;;;;;52.85;29.30;;;1.60;86.90;;;;;;5092945;28;20833;-82
2021/01/04 13:30:59;;;;;;;61.25;30.67;;;1.50;87.50;;;;;;5091139;28;20414;-83